You are listening to:
CZUL Center (Montreal) - Montreal, Quebec, Canada

CYUL 220300Z 24015G21KT 15SM FEW055 BKN250 24/19 A2945 RMK SC2CI4 SLP973 DENSITY ALT 1800FT

If stream doesn't start automatically press the play button
If stream stops then reload player then press play